sensor_id;sensor_type;location;lat;lon;timestamp;P1;durP1;ratioP1;P2;durP2;ratioP2
45905;SDS011;31619;49.008;12.106;2022-07-29T00:00:39;3.40;;;2.35;;
45905;SDS011;31619;49.008;12.106;2022-07-29T00:03:05;2.35;;;2.17;;
45905;SDS011;31619;49.008;12.106;2022-07-29T00:05:30;3.60;;;2.40;;
45905;SDS011;31619;49.008;12.106;2022-07-29T00:07:56;3.58;;;2.35;;
45905;SDS011;31619;49.008;12.106;2022-07-29T00:10:21;4.68;;;2.75;;
45905;SDS011;31619;49.008;12.106;2022-07-29T00:12:48;3.65;;;2.33;;
45905;SDS011;31619;49.008;12.106;2022-07-29T00:15:13;2.35;;;2.15;;
45905;SDS011;31619;49.008;12.106;2022-07-29T00:17:40;4.45;;;2.80;;
45905;SDS011;31619;49.008;12.106;2022-07-29T00:20:06;3.75;;;2.47;;
45905;SDS011;31619;49.008;12.106;2022-07-29T00:22:32;2.60;;;2.40;;
45905;SDS011;31619;49.008;12.106;2022-07-29T00:24:57;2.35;;;2.15;;
45905;SDS011;31619;49.008;12.106;2022-07-29T00:27:23;2.20;;;2.10;;
45905;SDS011;31619;49.008;12.106;2022-07-29T00:29:49;2.42;;;2.00;;
45905;SDS011;31619;49.008;12.106;2022-07-29T00:32:14;2.35;;;2.25;;
45905;SDS011;31619;49.008;12.106;2022-07-29T00:34:40;2.55;;;2.20;;
45905;SDS011;31619;49.008;12.106;2022-07-29T00:37:24;4.55;;;2.30;;
45905;SDS011;31619;49.008;12.106;2022-07-29T00:39:50;2.67;;;2.13;;
45905;SDS011;31619;49.008;12.106;2022-07-29T00:42:16;3.78;;;2.40;;
45905;SDS011;31619;49.008;12.106;2022-07-29T00:44:42;2.90;;;2.60;;
45905;SDS011;31619;49.008;12.106;2022-07-29T00:47:09;2.47;;;2.33;;
45905;SDS011;31619;49.008;12.106;2022-07-29T00:49:36;2.58;;;2.38;;
45905;SDS011;31619;49.008;12.106;2022-07-29T00:52:05;4.13;;;2.60;;
45905;SDS011;31619;49.008;12.106;2022-07-29T00:54:32;2.15;;;2.05;;
45905;SDS011;31619;49.008;12.106;2022-07-29T00:56:58;2.55;;;2.30;;
45905;SDS011;31619;49.008;12.106;2022-07-29T00:59:25;2.45;;;2.35;;
45905;SDS011;31619;49.008;12.106;2022-07-29T01:01:52;2.67;;;2.17;;
45905;SDS011;31619;49.008;12.106;2022-07-29T01:04:18;2.55;;;2.30;;
45905;SDS011;31619;49.008;12.106;2022-07-29T01:06:44;2.22;;;2.10;;
45905;SDS011;31619;49.008;12.106;2022-07-29T01:09:09;2.30;;;2.10;;
45905;SDS011;31619;49.008;12.106;2022-07-29T01:11:36;3.13;;;2.38;;
45905;SDS011;31619;49.008;12.106;2022-07-29T01:14:02;2.42;;;2.25;;
45905;SDS011;31619;49.008;12.106;2022-07-29T01:16:35;2.22;;;1.98;;
45905;SDS011;31619;49.008;12.106;2022-07-29T01:22:25;2.00;;;1.90;;
45905;SDS011;31619;49.008;12.106;2022-07-29T01:30:25;3.00;;;2.30;;
45905;SDS011;31619;49.008;12.106;2022-07-29T01:32:54;2.67;;;2.47;;
45905;SDS011;31619;49.008;12.106;2022-07-29T01:35:45;2.50;;;2.30;;
45905;SDS011;31619;49.008;12.106;2022-07-29T01:38:15;2.40;;;2.30;;
45905;SDS011;31619;49.008;12.106;2022-07-29T01:40:49;2.83;;;2.63;;
45905;SDS011;31619;49.008;12.106;2022-07-29T01:43:20;4.05;;;2.17;;
45905;SDS011;31619;49.008;12.106;2022-07-29T01:48:27;4.60;;;2.60;;
45905;SDS011;31619;49.008;12.106;2022-07-29T01:51:07;2.65;;;2.45;;
45905;SDS011;31619;49.008;12.106;2022-07-29T01:53:54;2.55;;;2.35;;
45905;SDS011;31619;49.008;12.106;2022-07-29T01:56:26;5.45;;;2.50;;
45905;SDS011;31619;49.008;12.106;2022-07-29T01:58:57;2.50;;;2.40;;
45905;SDS011;31619;49.008;12.106;2022-07-29T02:01:24;2.88;;;2.30;;
45905;SDS011;31619;49.008;12.106;2022-07-29T02:03:51;3.13;;;2.50;;
45905;SDS011;31619;49.008;12.106;2022-07-29T02:06:20;2.50;;;2.40;;
45905;SDS011;31619;49.008;12.106;2022-07-29T02:08:47;2.67;;;2.47;;
45905;SDS011;31619;49.008;12.106;2022-07-29T02:11:15;2.47;;;2.38;;
45905;SDS011;31619;49.008;12.106;2022-07-29T02:13:41;3.30;;;3.00;;
45905;SDS011;31619;49.008;12.106;2022-07-29T02:16:08;4.07;;;2.53;;
45905;SDS011;31619;49.008;12.106;2022-07-29T02:18:35;2.80;;;2.33;;
45905;SDS011;31619;49.008;12.106;2022-07-29T02:21:02;3.38;;;2.60;;
45905;SDS011;31619;49.008;12.106;2022-07-29T02:23:29;2.83;;;2.50;;
45905;SDS011;31619;49.008;12.106;2022-07-29T02:25:57;3.42;;;2.60;;
45905;SDS011;31619;49.008;12.106;2022-07-29T02:28:28;2.92;;;2.70;;
45905;SDS011;31619;49.008;12.106;2022-07-29T02:30:55;2.72;;;2.53;;
45905;SDS011;31619;49.008;12.106;2022-07-29T02:33:26;3.25;;;2.97;;
45905;SDS011;31619;49.008;12.106;2022-07-29T02:35:55;3.55;;;2.50;;
45905;SDS011;31619;49.008;12.106;2022-07-29T02:38:23;2.47;;;2.28;;
45905;SDS011;31619;49.008;12.106;2022-07-29T02:41:10;3.20;;;2.90;;
45905;SDS011;31619;49.008;12.106;2022-07-29T02:43:38;2.70;;;2.50;;
45905;SDS011;31619;49.008;12.106;2022-07-29T02:46:06;3.53;;;2.60;;
45905;SDS011;31619;49.008;12.106;2022-07-29T02:48:38;3.00;;;2.47;;
45905;SDS011;31619;49.008;12.106;2022-07-29T02:51:13;5.57;;;2.65;;
45905;SDS011;31619;49.008;12.106;2022-07-29T02:53:45;3.53;;;2.58;;
45905;SDS011;31619;49.008;12.106;2022-07-29T02:56:16;2.58;;;2.40;;
45905;SDS011;31619;49.008;12.106;2022-07-29T02:58:46;4.15;;;2.28;;
45905;SDS011;31619;49.008;12.106;2022-07-29T03:01:25;5.35;;;2.17;;
45905;SDS011;31619;49.008;12.106;2022-07-29T03:03:55;3.88;;;2.58;;
45905;SDS011;31619;49.008;12.106;2022-07-29T03:06:22;2.85;;;2.65;;
45905;SDS011;31619;49.008;12.106;2022-07-29T03:08:50;2.20;;;2.10;;
45905;SDS011;31619;49.008;12.106;2022-07-29T03:11:17;2.65;;;2.42;;
45905;SDS011;31619;49.008;12.106;2022-07-29T03:13:43;2.78;;;2.55;;
45905;SDS011;31619;49.008;12.106;2022-07-29T03:16:09;2.80;;;2.50;;
45905;SDS011;31619;49.008;12.106;2022-07-29T03:18:36;3.15;;;2.65;;
45905;SDS011;31619;49.008;12.106;2022-07-29T03:21:02;2.90;;;2.72;;
45905;SDS011;31619;49.008;12.106;2022-07-29T03:23:28;2.50;;;2.30;;
45905;SDS011;31619;49.008;12.106;2022-07-29T03:25:55;2.70;;;2.50;;
45905;SDS011;31619;49.008;12.106;2022-07-29T03:28:21;2.58;;;2.42;;
45905;SDS011;31619;49.008;12.106;2022-07-29T03:30:47;3.00;;;2.70;;
45905;SDS011;31619;49.008;12.106;2022-07-29T03:33:13;2.95;;;2.55;;
45905;SDS011;31619;49.008;12.106;2022-07-29T03:35:39;4.93;;;2.67;;
45905;SDS011;31619;49.008;12.106;2022-07-29T03:38:05;2.65;;;2.47;;
45905;SDS011;31619;49.008;12.106;2022-07-29T03:40:32;3.65;;;2.47;;
45905;SDS011;31619;49.008;12.106;2022-07-29T03:43:03;3.25;;;2.40;;
45905;SDS011;31619;49.008;12.106;2022-07-29T03:45:30;2.60;;;2.40;;
45905;SDS011;31619;49.008;12.106;2022-07-29T03:47:59;3.33;;;2.45;;
45905;SDS011;31619;49.008;12.106;2022-07-29T03:50:30;4.07;;;3.00;;
45905;SDS011;31619;49.008;12.106;2022-07-29T03:52:57;4.07;;;2.50;;
45905;SDS011;31619;49.008;12.106;2022-07-29T03:55:23;3.53;;;2.22;;
45905;SDS011;31619;49.008;12.106;2022-07-29T03:57:50;2.92;;;2.70;;
45905;SDS011;31619;49.008;12.106;2022-07-29T04:00:16;2.35;;;2.15;;
45905;SDS011;31619;49.008;12.106;2022-07-29T04:02:42;6.00;;;2.97;;
45905;SDS011;31619;49.008;12.106;2022-07-29T04:05:13;2.60;;;2.40;;
45905;SDS011;31619;49.008;12.106;2022-07-29T04:07:40;2.80;;;2.40;;
45905;SDS011;31619;49.008;12.106;2022-07-29T04:10:08;4.43;;;2.67;;
45905;SDS011;31619;49.008;12.106;2022-07-29T04:12:34;2.83;;;2.60;;
45905;SDS011;31619;49.008;12.106;2022-07-29T04:15:01;3.30;;;2.67;;
45905;SDS011;31619;49.008;12.106;2022-07-29T04:17:27;3.20;;;2.75;;
45905;SDS011;31619;49.008;12.106;2022-07-29T04:19:53;5.10;;;2.78;;
45905;SDS011;31619;49.008;12.106;2022-07-29T04:22:18;3.72;;;2.50;;
45905;SDS011;31619;49.008;12.106;2022-07-29T04:24:44;2.30;;;2.20;;
45905;SDS011;31619;49.008;12.106;2022-07-29T04:27:09;2.78;;;2.58;;
45905;SDS011;31619;49.008;12.106;2022-07-29T04:29:35;3.03;;;2.83;;
45905;SDS011;31619;49.008;12.106;2022-07-29T04:32:01;4.18;;;2.25;;
45905;SDS011;31619;49.008;12.106;2022-07-29T04:34:26;2.47;;;2.25;;
45905;SDS011;31619;49.008;12.106;2022-07-29T04:36:52;2.70;;;2.50;;
45905;SDS011;31619;49.008;12.106;2022-07-29T04:39:17;2.85;;;2.65;;
45905;SDS011;31619;49.008;12.106;2022-07-29T04:41:43;3.92;;;2.45;;
45905;SDS011;31619;49.008;12.106;2022-07-29T04:44:09;2.75;;;2.50;;
45905;SDS011;31619;49.008;12.106;2022-07-29T04:46:35;2.78;;;2.38;;
45905;SDS011;31619;49.008;12.106;2022-07-29T04:49:01;3.50;;;2.80;;
45905;SDS011;31619;49.008;12.106;2022-07-29T04:51:27;2.33;;;2.22;;
45905;SDS011;31619;49.008;12.106;2022-07-29T04:53:53;2.88;;;2.63;;
45905;SDS011;31619;49.008;12.106;2022-07-29T04:56:18;3.55;;;2.60;;
45905;SDS011;31619;49.008;12.106;2022-07-29T04:58:44;2.90;;;2.67;;
45905;SDS011;31619;49.008;12.106;2022-07-29T05:01:10;4.72;;;2.78;;
45905;SDS011;31619;49.008;12.106;2022-07-29T05:03:35;2.90;;;2.33;;
45905;SDS011;31619;49.008;12.106;2022-07-29T05:06:01;2.78;;;2.40;;
45905;SDS011;31619;49.008;12.106;2022-07-29T05:08:26;3.20;;;2.95;;
45905;SDS011;31619;49.008;12.106;2022-07-29T05:10:52;7.03;;;2.75;;
45905;SDS011;31619;49.008;12.106;2022-07-29T05:13:18;3.78;;;2.60;;
45905;SDS011;31619;49.008;12.106;2022-07-29T05:15:43;4.53;;;2.90;;
45905;SDS011;31619;49.008;12.106;2022-07-29T05:18:09;3.35;;;2.78;;
45905;SDS011;31619;49.008;12.106;2022-07-29T05:20:34;3.25;;;2.67;;
45905;SDS011;31619;49.008;12.106;2022-07-29T05:23:00;3.72;;;2.90;;
45905;SDS011;31619;49.008;12.106;2022-07-29T05:25:28;2.80;;;2.50;;
45905;SDS011;31619;49.008;12.106;2022-07-29T05:27:54;2.53;;;2.33;;
45905;SDS011;31619;49.008;12.106;2022-07-29T05:30:21;3.10;;;2.47;;
45905;SDS011;31619;49.008;12.106;2022-07-29T05:32:47;2.80;;;2.60;;
45905;SDS011;31619;49.008;12.106;2022-07-29T05:35:13;2.58;;;2.22;;
45905;SDS011;31619;49.008;12.106;2022-07-29T05:37:40;2.90;;;2.47;;
45905;SDS011;31619;49.008;12.106;2022-07-29T05:40:06;2.70;;;2.50;;
45905;SDS011;31619;49.008;12.106;2022-07-29T05:42:32;2.83;;;2.65;;
45905;SDS011;31619;49.008;12.106;2022-07-29T05:44:58;6.70;;;3.00;;
45905;SDS011;31619;49.008;12.106;2022-07-29T05:47:24;2.90;;;2.70;;
45905;SDS011;31619;49.008;12.106;2022-07-29T05:49:50;2.58;;;2.38;;
45905;SDS011;31619;49.008;12.106;2022-07-29T05:52:16;3.38;;;2.40;;
45905;SDS011;31619;49.008;12.106;2022-07-29T05:54:42;2.72;;;2.50;;
45905;SDS011;31619;49.008;12.106;2022-07-29T05:57:08;4.30;;;2.47;;
45905;SDS011;31619;49.008;12.106;2022-07-29T05:59:39;4.47;;;2.50;;
45905;SDS011;31619;49.008;12.106;2022-07-29T06:02:05;3.40;;;2.67;;
45905;SDS011;31619;49.008;12.106;2022-07-29T06:04:31;4.78;;;2.78;;
45905;SDS011;31619;49.008;12.106;2022-07-29T06:06:58;6.78;;;3.05;;
45905;SDS011;31619;49.008;12.106;2022-07-29T06:09:24;2.83;;;2.60;;
45905;SDS011;31619;49.008;12.106;2022-07-29T06:11:50;6.28;;;2.78;;
45905;SDS011;31619;49.008;12.106;2022-07-29T06:14:17;4.20;;;2.75;;
45905;SDS011;31619;49.008;12.106;2022-07-29T06:16:43;3.70;;;2.63;;
45905;SDS011;31619;49.008;12.106;2022-07-29T06:19:08;3.00;;;2.55;;
45905;SDS011;31619;49.008;12.106;2022-07-29T06:21:34;3.22;;;2.78;;
45905;SDS011;31619;49.008;12.106;2022-07-29T06:24:00;5.38;;;2.55;;
45905;SDS011;31619;49.008;12.106;2022-07-29T06:26:25;4.72;;;2.55;;
45905;SDS011;31619;49.008;12.106;2022-07-29T06:28:51;2.72;;;2.20;;
45905;SDS011;31619;49.008;12.106;2022-07-29T06:31:16;5.22;;;2.53;;
45905;SDS011;31619;49.008;12.106;2022-07-29T06:33:42;3.95;;;2.58;;
45905;SDS011;31619;49.008;12.106;2022-07-29T06:36:07;3.28;;;2.45;;
45905;SDS011;31619;49.008;12.106;2022-07-29T06:38:33;3.60;;;2.80;;
45905;SDS011;31619;49.008;12.106;2022-07-29T06:40:59;9.65;;;2.80;;
45905;SDS011;31619;49.008;12.106;2022-07-29T06:43:30;8.63;;;2.70;;
45905;SDS011;31619;49.008;12.106;2022-07-29T06:45:59;2.92;;;2.47;;
45905;SDS011;31619;49.008;12.106;2022-07-29T06:48:26;6.65;;;2.42;;
45905;SDS011;31619;49.008;12.106;2022-07-29T06:50:52;5.15;;;2.67;;
45905;SDS011;31619;49.008;12.106;2022-07-29T06:53:17;5.75;;;3.05;;
45905;SDS011;31619;49.008;12.106;2022-07-29T06:55:43;4.68;;;2.83;;
45905;SDS011;31619;49.008;12.106;2022-07-29T06:58:09;6.03;;;2.40;;
45905;SDS011;31619;49.008;12.106;2022-07-29T07:00:35;4.90;;;2.75;;
45905;SDS011;31619;49.008;12.106;2022-07-29T07:03:01;4.65;;;2.65;;
45905;SDS011;31619;49.008;12.106;2022-07-29T07:05:27;3.63;;;2.40;;
45905;SDS011;31619;49.008;12.106;2022-07-29T07:07:53;4.57;;;2.97;;
45905;SDS011;31619;49.008;12.106;2022-07-29T07:10:18;4.28;;;2.40;;
45905;SDS011;31619;49.008;12.106;2022-07-29T07:12:44;5.38;;;2.53;;
45905;SDS011;31619;49.008;12.106;2022-07-29T07:15:09;2.65;;;2.38;;
45905;SDS011;31619;49.008;12.106;2022-07-29T07:17:35;4.68;;;2.78;;
45905;SDS011;31619;49.008;12.106;2022-07-29T07:20:02;2.58;;;2.38;;
45905;SDS011;31619;49.008;12.106;2022-07-29T07:22:29;3.00;;;2.65;;
45905;SDS011;31619;49.008;12.106;2022-07-29T07:24:55;4.55;;;2.78;;
45905;SDS011;31619;49.008;12.106;2022-07-29T07:27:21;5.35;;;2.95;;
45905;SDS011;31619;49.008;12.106;2022-07-29T07:29:47;4.22;;;2.58;;
45905;SDS011;31619;49.008;12.106;2022-07-29T07:32:12;8.05;;;3.17;;
45905;SDS011;31619;49.008;12.106;2022-07-29T07:34:41;3.60;;;3.30;;
45905;SDS011;31619;49.008;12.106;2022-07-29T07:37:08;6.05;;;2.92;;
45905;SDS011;31619;49.008;12.106;2022-07-29T07:39:34;4.05;;;2.78;;
45905;SDS011;31619;49.008;12.106;2022-07-29T07:41:59;7.13;;;3.35;;
45905;SDS011;31619;49.008;12.106;2022-07-29T07:44:26;3.08;;;2.85;;
45905;SDS011;31619;49.008;12.106;2022-07-29T07:46:52;3.13;;;2.92;;
45905;SDS011;31619;49.008;12.106;2022-07-29T07:49:17;3.03;;;2.83;;
45905;SDS011;31619;49.008;12.106;2022-07-29T07:51:43;3.40;;;3.13;;
45905;SDS011;31619;49.008;12.106;2022-07-29T07:54:09;5.65;;;3.17;;
45905;SDS011;31619;49.008;12.106;2022-07-29T07:56:35;5.53;;;3.10;;
45905;SDS011;31619;49.008;12.106;2022-07-29T07:59:00;3.50;;;3.20;;
45905;SDS011;31619;49.008;12.106;2022-07-29T08:01:26;3.85;;;3.20;;
45905;SDS011;31619;49.008;12.106;2022-07-29T08:03:51;4.20;;;3.50;;
45905;SDS011;31619;49.008;12.106;2022-07-29T08:06:17;3.60;;;3.30;;
45905;SDS011;31619;49.008;12.106;2022-07-29T08:08:43;6.10;;;3.08;;
45905;SDS011;31619;49.008;12.106;2022-07-29T08:11:09;3.70;;;3.40;;
45905;SDS011;31619;49.008;12.106;2022-07-29T08:13:34;8.75;;;3.72;;
45905;SDS011;31619;49.008;12.106;2022-07-29T08:16:01;5.80;;;3.40;;
45905;SDS011;31619;49.008;12.106;2022-07-29T08:18:30;4.32;;;3.25;;
45905;SDS011;31619;49.008;12.106;2022-07-29T08:20:56;5.35;;;2.92;;
45905;SDS011;31619;49.008;12.106;2022-07-29T08:23:23;9.75;;;3.53;;
45905;SDS011;31619;49.008;12.106;2022-07-29T08:25:49;3.83;;;3.50;;
45905;SDS011;31619;49.008;12.106;2022-07-29T08:28:15;3.67;;;3.38;;
45905;SDS011;31619;49.008;12.106;2022-07-29T08:30:41;5.30;;;3.05;;
45905;SDS011;31619;49.008;12.106;2022-07-29T08:33:07;5.18;;;3.58;;
45905;SDS011;31619;49.008;12.106;2022-07-29T08:35:32;4.13;;;3.83;;
45905;SDS011;31619;49.008;12.106;2022-07-29T08:37:58;4.25;;;3.85;;
45905;SDS011;31619;49.008;12.106;2022-07-29T08:40:24;5.22;;;3.80;;
45905;SDS011;31619;49.008;12.106;2022-07-29T08:42:50;5.82;;;4.18;;
45905;SDS011;31619;49.008;12.106;2022-07-29T08:45:16;7.72;;;4.93;;
45905;SDS011;31619;49.008;12.106;2022-07-29T08:47:43;4.22;;;3.80;;
45905;SDS011;31619;49.008;12.106;2022-07-29T08:50:10;4.80;;;4.30;;
45905;SDS011;31619;49.008;12.106;2022-07-29T08:52:37;5.22;;;4.25;;
45905;SDS011;31619;49.008;12.106;2022-07-29T08:55:08;4.18;;;3.47;;
45905;SDS011;31619;49.008;12.106;2022-07-29T08:57:35;6.20;;;3.72;;
45905;SDS011;31619;49.008;12.106;2022-07-29T09:00:02;6.63;;;3.22;;
45905;SDS011;31619;49.008;12.106;2022-07-29T09:02:30;4.63;;;3.90;;
45905;SDS011;31619;49.008;12.106;2022-07-29T09:05:00;6.45;;;3.80;;
45905;SDS011;31619;49.008;12.106;2022-07-29T09:07:27;3.80;;;3.40;;
45905;SDS011;31619;49.008;12.106;2022-07-29T09:09:53;4.47;;;3.70;;
45905;SDS011;31619;49.008;12.106;2022-07-29T09:12:19;4.25;;;3.88;;
45905;SDS011;31619;49.008;12.106;2022-07-29T09:14:47;7.85;;;4.00;;
45905;SDS011;31619;49.008;12.106;2022-07-29T09:17:12;6.70;;;4.32;;
45905;SDS011;31619;49.008;12.106;2022-07-29T09:19:41;3.88;;;3.63;;
45905;SDS011;31619;49.008;12.106;2022-07-29T09:22:07;11.23;;;4.50;;
45905;SDS011;31619;49.008;12.106;2022-07-29T09:27:10;4.72;;;3.38;;
45905;SDS011;31619;49.008;12.106;2022-07-29T09:29:46;4.45;;;4.10;;
45905;SDS011;31619;49.008;12.106;2022-07-29T09:32:12;6.72;;;3.90;;
45905;SDS011;31619;49.008;12.106;2022-07-29T09:34:38;4.50;;;3.95;;
45905;SDS011;31619;49.008;12.106;2022-07-29T09:37:03;4.32;;;3.92;;
45905;SDS011;31619;49.008;12.106;2022-07-29T09:39:34;3.03;;;2.85;;
45905;SDS011;31619;49.008;12.106;2022-07-29T09:42:11;3.00;;;2.70;;
45905;SDS011;31619;49.008;12.106;2022-07-29T09:44:41;3.00;;;2.80;;
45905;SDS011;31619;49.008;12.106;2022-07-29T09:47:14;2.90;;;2.55;;
45905;SDS011;31619;49.008;12.106;2022-07-29T09:52:15;2.80;;;2.70;;
45905;SDS011;31619;49.008;12.106;2022-07-29T09:54:41;2.90;;;2.80;;
45905;SDS011;31619;49.008;12.106;2022-07-29T09:57:07;3.75;;;2.42;;
45905;SDS011;31619;49.008;12.106;2022-07-29T09:59:37;3.47;;;2.15;;
45905;SDS011;31619;49.008;12.106;2022-07-29T10:02:12;2.40;;;2.28;;
45905;SDS011;31619;49.008;12.106;2022-07-29T10:04:39;3.22;;;2.60;;
45905;SDS011;31619;49.008;12.106;2022-07-29T10:07:06;4.25;;;2.67;;
45905;SDS011;31619;49.008;12.106;2022-07-29T10:09:32;3.45;;;2.40;;
45905;SDS011;31619;49.008;12.106;2022-07-29T10:14:40;2.67;;;2.45;;
45905;SDS011;31619;49.008;12.106;2022-07-29T10:17:07;2.35;;;2.17;;
45905;SDS011;31619;49.008;12.106;2022-07-29T10:19:34;2.58;;;2.20;;
45905;SDS011;31619;49.008;12.106;2022-07-29T10:22:02;2.60;;;2.00;;
45905;SDS011;31619;49.008;12.106;2022-07-29T10:24:30;2.42;;;2.22;;
45905;SDS011;31619;49.008;12.106;2022-07-29T10:26:57;2.05;;;1.80;;
45905;SDS011;31619;49.008;12.106;2022-07-29T10:29:25;2.42;;;2.17;;
45905;SDS011;31619;49.008;12.106;2022-07-29T10:37:17;2.08;;;1.80;;
45905;SDS011;31619;49.008;12.106;2022-07-29T10:43:06;1.90;;;1.80;;
45905;SDS011;31619;49.008;12.106;2022-07-29T10:45:56;2.70;;;1.70;;
45905;SDS011;31619;49.008;12.106;2022-07-29T10:48:22;1.73;;;1.52;;
45905;SDS011;31619;49.008;12.106;2022-07-29T10:50:52;1.80;;;1.70;;
45905;SDS011;31619;49.008;12.106;2022-07-29T10:53:19;1.67;;;1.58;;
45905;SDS011;31619;49.008;12.106;2022-07-29T10:55:45;2.20;;;1.60;;
45905;SDS011;31619;49.008;12.106;2022-07-29T10:58:18;2.20;;;2.10;;
45905;SDS011;31619;49.008;12.106;2022-07-29T11:00:51;1.85;;;1.75;;
45905;SDS011;31619;49.008;12.106;2022-07-29T11:06:06;1.55;;;1.45;;
45905;SDS011;31619;49.008;12.106;2022-07-29T11:08:32;1.90;;;1.70;;
45905;SDS011;31619;49.008;12.106;2022-07-29T11:13:50;2.67;;;2.00;;
45905;SDS011;31619;49.008;12.106;2022-07-29T11:16:19;1.73;;;1.63;;
45905;SDS011;31619;49.008;12.106;2022-07-29T11:21:38;3.33;;;2.03;;
45905;SDS011;31619;49.008;12.106;2022-07-29T11:24:15;1.65;;;1.55;;
45905;SDS011;31619;49.008;12.106;2022-07-29T11:27:09;1.73;;;1.63;;
45905;SDS011;31619;49.008;12.106;2022-07-29T11:29:35;1.60;;;1.50;;
45905;SDS011;31619;49.008;12.106;2022-07-29T11:32:12;1.60;;;1.60;;
45905;SDS011;31619;49.008;12.106;2022-07-29T11:34:43;1.73;;;1.63;;
45905;SDS011;31619;49.008;12.106;2022-07-29T11:39:36;2.72;;;1.60;;
45905;SDS011;31619;49.008;12.106;2022-07-29T11:44:54;2.25;;;1.50;;
45905;SDS011;31619;49.008;12.106;2022-07-29T11:47:31;2.25;;;1.58;;
45905;SDS011;31619;49.008;12.106;2022-07-29T11:49:59;2.00;;;1.50;;
45905;SDS011;31619;49.008;12.106;2022-07-29T11:52:41;1.92;;;1.80;;
45905;SDS011;31619;49.008;12.106;2022-07-29T11:55:10;2.05;;;1.67;;
45905;SDS011;31619;49.008;12.106;2022-07-29T11:57:38;1.67;;;1.60;;
45905;SDS011;31619;49.008;12.106;2022-07-29T12:00:31;1.92;;;1.73;;
45905;SDS011;31619;49.008;12.106;2022-07-29T12:03:03;1.70;;;1.60;;
45905;SDS011;31619;49.008;12.106;2022-07-29T12:08:05;1.60;;;1.50;;
45905;SDS011;31619;49.008;12.106;2022-07-29T12:10:36;2.00;;;1.90;;
45905;SDS011;31619;49.008;12.106;2022-07-29T12:13:02;2.60;;;1.65;;
45905;SDS011;31619;49.008;12.106;2022-07-29T12:15:28;1.58;;;1.58;;
45905;SDS011;31619;49.008;12.106;2022-07-29T12:17:54;1.95;;;1.42;;
45905;SDS011;31619;49.008;12.106;2022-07-29T12:20:27;1.27;;;1.27;;
45905;SDS011;31619;49.008;12.106;2022-07-29T12:22:54;1.65;;;1.55;;
45905;SDS011;31619;49.008;12.106;2022-07-29T12:25:21;2.65;;;1.65;;
45905;SDS011;31619;49.008;12.106;2022-07-29T12:27:58;1.40;;;1.40;;
45905;SDS011;31619;49.008;12.106;2022-07-29T12:30:34;1.88;;;1.70;;
45905;SDS011;31619;49.008;12.106;2022-07-29T12:33:09;1.30;;;1.30;;
45905;SDS011;31619;49.008;12.106;2022-07-29T12:35:39;1.50;;;1.50;;
45905;SDS011;31619;49.008;12.106;2022-07-29T12:38:09;2.13;;;1.50;;
45905;SDS011;31619;49.008;12.106;2022-07-29T12:40:36;1.65;;;1.60;;
45905;SDS011;31619;49.008;12.106;2022-07-29T12:45:34;2.58;;;1.30;;
45905;SDS011;31619;49.008;12.106;2022-07-29T12:48:01;2.15;;;1.42;;
45905;SDS011;31619;49.008;12.106;2022-07-29T12:50:27;1.42;;;1.38;;
45905;SDS011;31619;49.008;12.106;2022-07-29T12:52:53;1.60;;;1.50;;
45905;SDS011;31619;49.008;12.106;2022-07-29T12:55:41;3.50;;;1.50;;
45905;SDS011;31619;49.008;12.106;2022-07-29T13:01:15;3.45;;;1.77;;
45905;SDS011;31619;49.008;12.106;2022-07-29T13:06:27;4.07;;;1.90;;
45905;SDS011;31619;49.008;12.106;2022-07-29T13:08:59;1.77;;;1.40;;
45905;SDS011;31619;49.008;12.106;2022-07-29T13:11:32;1.73;;;1.63;;
45905;SDS011;31619;49.008;12.106;2022-07-29T13:14:09;1.95;;;1.48;;
45905;SDS011;31619;49.008;12.106;2022-07-29T13:16:37;1.40;;;1.40;;
45905;SDS011;31619;49.008;12.106;2022-07-29T13:19:52;1.60;;;1.50;;
45905;SDS011;31619;49.008;12.106;2022-07-29T13:22:29;5.80;;;1.63;;
45905;SDS011;31619;49.008;12.106;2022-07-29T13:24:56;1.05;;;1.05;;
45905;SDS011;31619;49.008;12.106;2022-07-29T13:27:24;1.50;;;1.40;;
45905;SDS011;31619;49.008;12.106;2022-07-29T13:29:54;1.70;;;1.33;;
45905;SDS011;31619;49.008;12.106;2022-07-29T13:32:24;1.20;;;1.20;;
45905;SDS011;31619;49.008;12.106;2022-07-29T13:34:51;1.27;;;1.25;;
45905;SDS011;31619;49.008;12.106;2022-07-29T13:37:17;1.52;;;1.42;;
45905;SDS011;31619;49.008;12.106;2022-07-29T13:39:43;1.33;;;1.23;;
45905;SDS011;31619;49.008;12.106;2022-07-29T13:42:09;1.30;;;1.20;;
45905;SDS011;31619;49.008;12.106;2022-07-29T13:44:35;1.60;;;1.33;;
45905;SDS011;31619;49.008;12.106;2022-07-29T13:47:01;1.88;;;1.60;;
45905;SDS011;31619;49.008;12.106;2022-07-29T13:49:27;1.20;;;1.20;;
45905;SDS011;31619;49.008;12.106;2022-07-29T13:51:53;1.10;;;1.10;;
45905;SDS011;31619;49.008;12.106;2022-07-29T13:54:19;1.48;;;1.10;;
45905;SDS011;31619;49.008;12.106;2022-07-29T13:56:45;2.05;;;1.25;;
45905;SDS011;31619;49.008;12.106;2022-07-29T13:59:11;1.17;;;1.17;;
45905;SDS011;31619;49.008;12.106;2022-07-29T14:01:37;1.35;;;1.35;;
45905;SDS011;31619;49.008;12.106;2022-07-29T14:04:06;1.27;;;1.27;;
45905;SDS011;31619;49.008;12.106;2022-07-29T14:06:32;1.30;;;1.20;;
45905;SDS011;31619;49.008;12.106;2022-07-29T14:08:58;1.50;;;1.40;;
45905;SDS011;31619;49.008;12.106;2022-07-29T14:11:23;1.10;;;1.10;;
45905;SDS011;31619;49.008;12.106;2022-07-29T14:13:49;1.48;;;1.38;;
45905;SDS011;31619;49.008;12.106;2022-07-29T14:16:15;1.52;;;1.45;;
45905;SDS011;31619;49.008;12.106;2022-07-29T14:18:41;2.90;;;2.15;;
45905;SDS011;31619;49.008;12.106;2022-07-29T14:21:06;4.05;;;1.92;;
45905;SDS011;31619;49.008;12.106;2022-07-29T14:23:32;2.70;;;1.60;;
45905;SDS011;31619;49.008;12.106;2022-07-29T14:25:57;1.50;;;1.40;;
45905;SDS011;31619;49.008;12.106;2022-07-29T14:28:23;1.50;;;1.40;;
45905;SDS011;31619;49.008;12.106;2022-07-29T14:30:49;2.40;;;1.65;;
45905;SDS011;31619;49.008;12.106;2022-07-29T14:33:14;1.73;;;1.52;;
45905;SDS011;31619;49.008;12.106;2022-07-29T14:35:40;1.40;;;1.40;;
45905;SDS011;31619;49.008;12.106;2022-07-29T14:38:06;1.92;;;1.30;;
45905;SDS011;31619;49.008;12.106;2022-07-29T14:40:32;2.58;;;1.40;;
45905;SDS011;31619;49.008;12.106;2022-07-29T14:42:57;2.08;;;1.58;;
45905;SDS011;31619;49.008;12.106;2022-07-29T14:45:23;1.85;;;1.63;;
45905;SDS011;31619;49.008;12.106;2022-07-29T14:47:49;1.42;;;1.42;;
45905;SDS011;31619;49.008;12.106;2022-07-29T14:50:15;2.15;;;1.40;;
45905;SDS011;31619;49.008;12.106;2022-07-29T14:52:41;1.98;;;1.50;;
45905;SDS011;31619;49.008;12.106;2022-07-29T14:55:08;1.23;;;1.23;;
45905;SDS011;31619;49.008;12.106;2022-07-29T14:57:34;1.55;;;1.45;;
45905;SDS011;31619;49.008;12.106;2022-07-29T15:00:00;1.45;;;1.40;;
45905;SDS011;31619;49.008;12.106;2022-07-29T15:02:26;1.30;;;1.30;;
45905;SDS011;31619;49.008;12.106;2022-07-29T15:04:51;1.70;;;1.38;;
45905;SDS011;31619;49.008;12.106;2022-07-29T15:07:17;1.33;;;1.30;;
45905;SDS011;31619;49.008;12.106;2022-07-29T15:09:42;2.72;;;1.60;;
45905;SDS011;31619;49.008;12.106;2022-07-29T15:12:10;1.50;;;1.40;;
45905;SDS011;31619;49.008;12.106;2022-07-29T15:14:36;4.53;;;1.55;;
45905;SDS011;31619;49.008;12.106;2022-07-29T15:17:02;1.60;;;1.50;;
45905;SDS011;31619;49.008;12.106;2022-07-29T15:19:28;2.58;;;1.90;;
45905;SDS011;31619;49.008;12.106;2022-07-29T15:21:53;1.65;;;1.58;;
45905;SDS011;31619;49.008;12.106;2022-07-29T15:24:19;1.27;;;1.25;;
45905;SDS011;31619;49.008;12.106;2022-07-29T15:26:45;1.20;;;1.20;;
45905;SDS011;31619;49.008;12.106;2022-07-29T15:29:11;2.05;;;1.35;;